createdAt,value
2022-12-09T00:00:44.568Z,99853.13
2022-12-09T00:03:11.363Z,99846.72
2022-12-09T00:05:41.067Z,99849.22
2022-12-09T00:08:08.089Z,99842.50
2022-12-09T00:10:35.163Z,99847.91
2022-12-09T00:13:01.896Z,99849.47
2022-12-09T00:15:28.463Z,99851.63
2022-12-09T00:17:55.224Z,99836.59
2022-12-09T00:20:21.876Z,99835.16
2022-12-09T00:22:48.686Z,99842.69
2022-12-09T00:25:15.255Z,99837.97
2022-12-09T00:27:42.066Z,99837.97
2022-12-09T00:30:09.143Z,99840.03
2022-12-09T00:32:36.408Z,99841.19
2022-12-09T00:35:04.370Z,99842.03
2022-12-09T00:37:31.088Z,99841.50
2022-12-09T00:39:58.379Z,99844.31
2022-12-09T00:42:25.209Z,99841.16
2022-12-09T00:44:52.117Z,99837.38
2022-12-09T00:47:19.364Z,99833.06
2022-12-09T00:49:45.972Z,99838.69
2022-12-09T00:52:12.614Z,99836.69
2022-12-09T00:54:39.257Z,99830.22
2022-12-09T00:57:06.071Z,99833.09
2022-12-09T00:59:33.606Z,99837.25
2022-12-09T01:02:00.348Z,99837.59
2022-12-09T01:04:27.111Z,99840.56
2022-12-09T01:06:53.841Z,99840.13
2022-12-09T01:09:20.429Z,99826.47
2022-12-09T01:11:47.433Z,99825.66
2022-12-09T01:14:14.364Z,99827.19
2022-12-09T01:16:41.174Z,99825.50
2022-12-09T01:19:10.692Z,99829.75
2022-12-09T01:21:37.395Z,99834.47
2022-12-09T01:24:10.978Z,99830.56
2022-12-09T01:26:38.057Z,99834.25
2022-12-09T01:29:05.277Z,99826.78
2022-12-09T01:31:31.925Z,99836.66
2022-12-09T01:33:58.898Z,99834.28
2022-12-09T01:36:28.605Z,99835.31
2022-12-09T01:38:58.269Z,99844.28
2022-12-09T01:41:25.665Z,99833.69
2022-12-09T01:44:07.562Z,99842.44
2022-12-09T01:46:34.716Z,99837.63
2022-12-09T01:49:02.062Z,99840.47
2022-12-09T01:51:30.473Z,99837.19
2022-12-09T01:53:57.712Z,99841.31
2022-12-09T01:56:30.322Z,99836.66
2022-12-09T01:59:00.602Z,99842.69
2022-12-09T02:01:28.230Z,99844.03
2022-12-09T02:03:55.566Z,99844.97
2022-12-09T02:06:22.907Z,99843.53
2022-12-09T02:08:50.964Z,99843.44
2022-12-09T02:11:48.118Z,99838.25
2022-12-09T02:14:23.768Z,99837.28
2022-12-09T02:16:59.313Z,99835.47
2022-12-09T02:19:43.790Z,99835.84
2022-12-09T02:22:15.918Z,99835.91
2022-12-09T02:25:04.438Z,99827.22
2022-12-09T02:27:37.702Z,99826.69
2022-12-09T02:30:09.978Z,99823.59
2022-12-09T02:32:43.072Z,99820.84
2022-12-09T02:35:31.723Z,99825.84
2022-12-09T02:38:09.949Z,99824.81
2022-12-09T02:40:52.619Z,99825.88
2022-12-09T02:43:23.867Z,99816.56
2022-12-09T02:45:54.797Z,99813.25
2022-12-09T02:48:26.611Z,99825.19
2022-12-09T02:50:56.882Z,99815.06
2022-12-09T02:53:26.055Z,99819.63
2022-12-09T02:55:55.753Z,99817.88
2022-12-09T02:58:22.488Z,99813.66
2022-12-09T03:00:50.717Z,99811.59
2022-12-09T03:03:19.129Z,99813.84
2022-12-09T03:05:49.652Z,99822.19
2022-12-09T03:08:58.994Z,99816.63
2022-12-09T03:11:27.869Z,99812.53
2022-12-09T03:14:12.714Z,99814.22
2022-12-09T03:16:46.893Z,99808.06
2022-12-09T03:19:36.238Z,99810.63
2022-12-09T03:22:07.927Z,99802.91
2022-12-09T03:24:38.405Z,99805.47
2022-12-09T03:27:09.697Z,99804.53
2022-12-09T03:29:42.232Z,99802.75
2022-12-09T03:32:12.037Z,99802.13
2022-12-09T03:34:42.352Z,99799.50
2022-12-09T03:37:10.896Z,99791.53
2022-12-09T03:39:39.669Z,99795.56
2022-12-09T03:42:15.278Z,99794.53
2022-12-09T03:44:50.555Z,99797.03
2022-12-09T03:47:17.305Z,99792.63
2022-12-09T03:49:44.718Z,99795.47
2022-12-09T03:52:36.662Z,99789.53
2022-12-09T03:55:16.273Z,99791.19
2022-12-09T03:57:45.345Z,99791.00
2022-12-09T04:00:12.528Z,99791.47
2022-12-09T04:02:40.632Z,99787.16
2022-12-09T04:05:07.984Z,99784.59
2022-12-09T04:07:34.834Z,99778.41
2022-12-09T04:10:01.943Z,99783.88
2022-12-09T04:12:29.714Z,99785.19
2022-12-09T04:14:56.291Z,99776.97
2022-12-09T04:17:22.957Z,99788.25
2022-12-09T04:19:50.060Z,99785.06
2022-12-09T04:22:17.007Z,99782.31
2022-12-09T04:24:43.597Z,99777.56
2022-12-09T04:27:13.323Z,99773.56
2022-12-09T04:29:40.106Z,99778.13
2022-12-09T04:32:06.914Z,99775.78
2022-12-09T04:34:34.000Z,99772.44
2022-12-09T04:37:01.003Z,99768.53
2022-12-09T04:39:27.823Z,99769.94
2022-12-09T04:41:54.383Z,99769.47
2022-12-09T04:44:21.365Z,99766.03
2022-12-09T04:46:49.146Z,99756.25
2022-12-09T04:49:16.190Z,99758.34
2022-12-09T04:51:42.911Z,99757.47
2022-12-09T04:54:13.865Z,99760.00
2022-12-09T04:56:41.753Z,99759.06
2022-12-09T04:59:08.605Z,99755.75
2022-12-09T05:01:35.666Z,99771.59
2022-12-09T05:04:03.629Z,99760.50
2022-12-09T05:06:31.257Z,99764.25
2022-12-09T05:08:58.668Z,99757.53
2022-12-09T05:11:25.973Z,99756.34
2022-12-09T05:13:54.119Z,99761.97
2022-12-09T05:16:22.507Z,99752.75
2022-12-09T05:18:49.989Z,99766.31
2022-12-09T05:21:19.435Z,99756.81
2022-12-09T05:23:47.175Z,99764.03
2022-12-09T05:26:16.597Z,99763.53
2022-12-09T05:28:43.644Z,99756.28
2022-12-09T05:31:14.952Z,99758.50
2022-12-09T05:33:42.264Z,99762.47
2022-12-09T05:36:11.098Z,99753.22
2022-12-09T05:38:38.180Z,99746.56
2022-12-09T05:41:05.437Z,99750.09
2022-12-09T05:43:33.551Z,99751.66
2022-12-09T05:46:01.879Z,99763.44
2022-12-09T05:48:29.480Z,99760.53
2022-12-09T05:51:27.196Z,99755.94
2022-12-09T05:53:55.057Z,99756.22
2022-12-09T05:56:24.335Z,99755.94
2022-12-09T05:58:52.169Z,99760.63
2022-12-09T06:01:19.555Z,99756.53
2022-12-09T06:03:48.524Z,99750.63
2022-12-09T06:06:18.222Z,99752.31
2022-12-09T06:08:46.067Z,99759.22
2022-12-09T06:11:16.403Z,99759.09
2022-12-09T06:13:44.082Z,99757.78
2022-12-09T06:16:11.395Z,99754.34
2022-12-09T06:18:38.622Z,99748.59
2022-12-09T06:21:10.038Z,99751.50
2022-12-09T06:23:38.484Z,99747.97
2022-12-09T06:26:05.644Z,99755.75
2022-12-09T06:28:33.315Z,99747.63
2022-12-09T06:31:00.775Z,99748.69
2022-12-09T06:33:53.478Z,99746.03
2022-12-09T06:36:14.476Z,99746.47
2022-12-09T06:38:41.205Z,99747.97
2022-12-09T06:41:12.482Z,99748.94
2022-12-09T06:43:40.133Z,99754.41
2022-12-09T06:46:23.332Z,99754.56
2022-12-09T06:48:51.237Z,99758.00
2022-12-09T06:51:18.451Z,99761.72
2022-12-09T06:53:46.131Z,99756.47
2022-12-09T06:56:14.323Z,99754.81
2022-12-09T06:58:43.096Z,99755.72
2022-12-09T07:01:15.954Z,99758.31
2022-12-09T07:03:45.808Z,99774.47
2022-12-09T07:06:34.825Z,99764.69
2022-12-09T07:09:06.249Z,99776.19
2022-12-09T07:11:33.598Z,99770.66
2022-12-09T07:14:00.722Z,99768.03
2022-12-09T07:16:28.449Z,99777.91
2022-12-09T07:18:55.630Z,99779.56
2022-12-09T07:21:24.021Z,99777.28
2022-12-09T07:23:51.191Z,99774.25
2022-12-09T07:26:19.305Z,99779.94
2022-12-09T07:28:47.292Z,99782.19
2022-12-09T07:31:28.438Z,99780.03
2022-12-09T07:33:57.690Z,99783.97
2022-12-09T07:36:26.640Z,99780.63
2022-12-09T07:39:06.177Z,99782.28
2022-12-09T07:41:33.286Z,99783.28
2022-12-09T07:44:00.540Z,99791.84
2022-12-09T07:46:27.614Z,99787.38
2022-12-09T07:48:56.172Z,99790.41
2022-12-09T07:51:24.445Z,99782.16
2022-12-09T07:53:51.686Z,99784.16
2022-12-09T07:56:19.528Z,99792.72
2022-12-09T07:58:47.803Z,99788.63
2022-12-09T08:01:17.574Z,99788.63
2022-12-09T08:03:46.459Z,99791.97
2022-12-09T08:06:19.543Z,99793.31
2022-12-09T08:08:47.176Z,99800.16
2022-12-09T08:11:20.684Z,99801.16
2022-12-09T08:13:48.177Z,99813.25
2022-12-09T08:16:17.643Z,99807.91
2022-12-09T08:18:45.496Z,99807.06
2022-12-09T08:21:34.446Z,99806.22
2022-12-09T08:24:05.849Z,99811.22
2022-12-09T08:26:34.076Z,99818.94
2022-12-09T08:29:01.199Z,99812.81
2022-12-09T08:31:28.631Z,99814.69
2022-12-09T08:33:55.920Z,99812.25
2022-12-09T08:36:26.338Z,99815.59
2022-12-09T08:38:53.943Z,99805.72
2022-12-09T08:41:35.858Z,99813.91
2022-12-09T08:44:17.198Z,99812.88
2022-12-09T08:46:47.358Z,99802.84
2022-12-09T08:49:18.776Z,99811.59
2022-12-09T08:51:47.514Z,99811.72
2022-12-09T08:54:14.074Z,99806.50
2022-12-09T08:56:44.781Z,99808.22
2022-12-09T08:59:11.700Z,99811.09
2022-12-09T09:01:38.334Z,99815.56
2022-12-09T09:04:12.461Z,99811.31
2022-12-09T09:06:41.480Z,99815.25
2022-12-09T09:09:10.211Z,99814.28
2022-12-09T09:11:37.747Z,99806.94
2022-12-09T09:14:07.606Z,99812.16
2022-12-09T09:16:35.490Z,99814.50
2022-12-09T09:19:05.699Z,99823.53
2022-12-09T09:21:33.114Z,99819.59
2022-12-09T09:24:00.573Z,99816.41
2022-12-09T09:26:31.090Z,99819.88
2022-12-09T09:28:57.974Z,99817.66
2022-12-09T09:31:25.798Z,99822.59
2022-12-09T09:33:53.888Z,99826.03
2022-12-09T09:36:23.992Z,99823.72
2022-12-09T09:38:54.188Z,99820.84
2022-12-09T09:41:42.697Z,99819.56
2022-12-09T09:44:19.683Z,99825.72
2022-12-09T09:46:48.967Z,99824.69
2022-12-09T09:49:33.750Z,99811.41
2022-12-09T09:52:06.072Z,99816.34
2022-12-09T09:54:33.056Z,99823.88
2022-12-09T09:57:22.913Z,99809.47
2022-12-09T09:59:54.977Z,99813.69
2022-12-09T10:02:33.305Z,99805.72
2022-12-09T10:05:20.790Z,99811.47
2022-12-09T10:07:53.530Z,99805.72
2022-12-09T10:10:49.422Z,99798.94
2022-12-09T10:13:41.838Z,99799.97
2022-12-09T10:16:21.214Z,99799.97
2022-12-09T10:19:14.812Z,99798.25
2022-12-09T10:21:44.660Z,99796.53
2022-12-09T10:24:39.128Z,99786.44
2022-12-09T10:27:25.205Z,99794.19
2022-12-09T10:29:58.350Z,99791.94
2022-12-09T10:32:28.925Z,99795.09
2022-12-09T10:34:56.205Z,99788.56
2022-12-09T10:37:36.125Z,99786.69
2022-12-09T10:40:19.375Z,99795.25
2022-12-09T10:43:14.559Z,99786.38
2022-12-09T10:46:16.674Z,99786.84
2022-12-09T10:48:37.649Z,99787.50
2022-12-09T10:51:10.534Z,99786.84
2022-12-09T10:53:44.716Z,99788.69
2022-12-09T10:56:18.819Z,99787.66
2022-12-09T10:58:45.373Z,99792.16
2022-12-09T11:01:14.031Z,99792.16
2022-12-09T11:03:49.085Z,99789.09
2022-12-09T11:06:28.549Z,99786.59
2022-12-09T11:09:02.627Z,99783.47
2022-12-09T11:12:00.146Z,99778.88
2022-12-09T11:14:39.777Z,99775.09
2022-12-09T11:17:55.876Z,99778.66
2022-12-09T11:20:27.812Z,99774.63
2022-12-09T11:23:00.872Z,99777.56
2022-12-09T11:25:36.053Z,99769.06
2022-12-09T11:28:17.302Z,99776.97
2022-12-09T11:31:20.516Z,99771.25
2022-12-09T11:33:50.153Z,99771.25
2022-12-09T11:36:44.050Z,99770.56
2022-12-09T11:39:23.365Z,99760.63
2022-12-09T11:42:16.530Z,99763.00
2022-12-09T11:45:17.486Z,99760.59
2022-12-09T11:50:36.616Z,99751.47
2022-12-09T11:53:12.358Z,99752.97
2022-12-09T11:55:45.726Z,99754.16
2022-12-09T11:58:19.080Z,99758.91
2022-12-09T12:00:55.988Z,99755.19
2022-12-09T12:03:46.245Z,99746.63
2022-12-09T12:06:22.179Z,99753.28
2022-12-09T12:08:55.175Z,99747.66
2022-12-09T12:11:28.627Z,99761.09
2022-12-09T12:14:04.542Z,99749.81
2022-12-09T12:16:55.051Z,99748.13
2022-12-09T12:19:28.429Z,99748.41
2022-12-09T12:22:16.207Z,99750.19
2022-12-09T12:25:05.400Z,99743.25
2022-12-09T12:28:10.835Z,99740.22
2022-12-09T12:31:04.097Z,99738.53
2022-12-09T12:34:24.012Z,99731.59
2022-12-09T12:36:51.486Z,99734.41
2022-12-09T12:40:00.422Z,99741.84
2022-12-09T12:43:05.392Z,99734.69
2022-12-09T12:46:01.239Z,99731.66
2022-12-09T12:48:46.354Z,99734.97
2022-12-09T12:51:32.045Z,99738.28
2022-12-09T12:54:04.348Z,99730.78
2022-12-09T12:56:44.471Z,99733.13
2022-12-09T12:59:40.218Z,99735.97
2022-12-09T13:02:28.302Z,99725.22
2022-12-09T13:05:03.399Z,99727.78
2022-12-09T13:07:51.992Z,99731.34
2022-12-09T13:10:30.522Z,99717.69
2022-12-09T13:12:59.415Z,99726.31
2022-12-09T13:15:45.355Z,99726.16
2022-12-09T13:18:16.506Z,99726.41
2022-12-09T13:20:50.330Z,99733.56
2022-12-09T13:23:48.072Z,99721.06
2022-12-09T13:26:43.122Z,99730.53
2022-12-09T13:29:48.314Z,99729.78
2022-12-09T13:32:33.672Z,99730.63
2022-12-09T13:35:13.281Z,99721.22
2022-12-09T13:37:42.550Z,99721.00
2022-12-09T13:40:21.481Z,99720.28
2022-12-09T13:42:58.458Z,99718.38
2022-12-09T13:45:27.761Z,99719.53
2022-12-09T13:47:56.811Z,99724.06
2022-12-09T13:50:24.865Z,99722.00
2022-12-09T13:52:54.669Z,99726.50
2022-12-09T13:55:29.227Z,99726.88
2022-12-09T13:58:14.342Z,99726.06
2022-12-09T14:00:43.574Z,99726.09
2022-12-09T14:03:31.353Z,99722.94
2022-12-09T14:06:01.714Z,99717.66
2022-12-09T14:08:37.921Z,99713.06
2022-12-09T14:12:03.203Z,99715.31
2022-12-09T14:14:29.759Z,99721.91
2022-12-09T14:16:59.010Z,99717.22
2022-12-09T14:19:25.481Z,99726.91
2022-12-09T14:22:17.932Z,99721.75
2022-12-09T14:24:46.120Z,99722.84
2022-12-09T14:27:14.758Z,99728.09
2022-12-09T14:29:44.373Z,99720.97
2022-12-09T14:32:22.626Z,99725.41
2022-12-09T14:35:02.202Z,99720.88
2022-12-09T14:37:35.371Z,99723.25
2022-12-09T14:40:35.874Z,99730.31
2022-12-09T14:43:17.849Z,99733.78
2022-12-09T14:45:54.466Z,99729.19
2022-12-09T14:48:26.078Z,99729.25
2022-12-09T14:51:16.941Z,99737.66
2022-12-09T14:53:49.315Z,99735.03
2022-12-09T14:56:21.381Z,99742.69
2022-12-09T14:58:50.434Z,99737.25
2022-12-09T15:01:18.265Z,99731.88
2022-12-09T15:03:57.012Z,99743.19
2022-12-09T15:06:26.788Z,99738.56
2022-12-09T15:08:56.384Z,99742.34
2022-12-09T15:11:31.378Z,99734.81
2022-12-09T15:14:21.911Z,99739.22
2022-12-09T15:16:50.968Z,99733.75
2022-12-09T15:19:58.769Z,99735.97
2022-12-09T15:22:28.927Z,99739.91
2022-12-09T15:24:55.594Z,99735.97
2022-12-09T15:27:23.829Z,99742.16
2022-12-09T15:29:50.996Z,99745.06
2022-12-09T15:32:20.119Z,99750.19
2022-12-09T15:34:46.723Z,99746.00
2022-12-09T15:37:14.077Z,99746.63
2022-12-09T15:39:50.089Z,99751.81
2022-12-09T15:42:25.794Z,99747.09
2022-12-09T15:44:53.356Z,99748.03
2022-12-09T15:47:28.122Z,99752.75
2022-12-09T15:50:12.004Z,99751.44
2022-12-09T15:52:55.375Z,99748.97
2022-12-09T15:55:30.937Z,99754.19
2022-12-09T15:58:00.721Z,99757.00
2022-12-09T16:00:27.817Z,99754.44
2022-12-09T16:02:55.672Z,99761.69
2022-12-09T16:05:25.513Z,99758.94
2022-12-09T16:07:59.334Z,99762.47
2022-12-09T16:10:29.385Z,99759.84
2022-12-09T16:13:14.038Z,99758.66
2022-12-09T16:15:52.773Z,99756.63
2022-12-09T16:18:51.984Z,99766.75
2022-12-09T16:21:27.932Z,99753.97
2022-12-09T16:24:04.659Z,99749.84
2022-12-09T16:26:35.681Z,99759.72
2022-12-09T16:29:07.333Z,99759.59
2022-12-09T16:31:34.049Z,99767.66
2022-12-09T16:34:00.589Z,99771.31
2022-12-09T16:36:30.758Z,99774.75
2022-12-09T16:39:09.447Z,99775.66
2022-12-09T16:41:51.280Z,99777.56
2022-12-09T16:44:22.426Z,99777.44
2022-12-09T16:46:49.097Z,99782.66
2022-12-09T16:49:15.666Z,99783.88
2022-12-09T16:51:42.288Z,99782.91
2022-12-09T16:54:19.645Z,99776.06
2022-12-09T16:56:47.261Z,99782.16
2022-12-09T16:59:13.750Z,99779.81
2022-12-09T17:01:42.012Z,99783.72
2022-12-09T17:04:34.757Z,99791.22
2022-12-09T17:07:01.310Z,99789.91
2022-12-09T17:09:27.867Z,99790.06
2022-12-09T17:11:54.408Z,99791.81
2022-12-09T17:14:20.902Z,99797.63
2022-12-09T17:16:47.535Z,99793.56
2022-12-09T17:19:14.080Z,99798.13
2022-12-09T17:21:40.706Z,99796.59
2022-12-09T17:24:08.059Z,99794.56
2022-12-09T17:26:34.638Z,99803.75
2022-12-09T17:29:02.030Z,99797.72
2022-12-09T17:31:29.282Z,99791.16
2022-12-09T17:33:56.989Z,99804.44
2022-12-09T17:36:23.573Z,99802.69
2022-12-09T17:38:50.123Z,99806.38
2022-12-09T17:41:20.421Z,99798.59
2022-12-09T17:43:47.222Z,99808.28
2022-12-09T17:46:14.697Z,99798.53
2022-12-09T17:48:41.837Z,99808.44
2022-12-09T17:51:14.304Z,99811.13
2022-12-09T17:53:42.156Z,99814.13
2022-12-09T17:56:14.938Z,99817.34
2022-12-09T17:58:42.125Z,99813.97
2022-12-09T18:01:19.786Z,99819.75
2022-12-09T18:03:55.892Z,99818.00
2022-12-09T18:06:27.091Z,99826.47
2022-12-09T18:08:53.922Z,99829.38
2022-12-09T18:11:22.250Z,99830.56
2022-12-09T18:13:50.250Z,99825.84
2022-12-09T18:16:17.234Z,99825.44
2022-12-09T18:18:44.531Z,99828.38
2022-12-09T18:21:15.581Z,99836.56
2022-12-09T18:23:43.090Z,99832.44
2022-12-09T18:26:14.342Z,99838.78
2022-12-09T18:28:41.585Z,99846.06
2022-12-09T18:31:09.674Z,99848.31
2022-12-09T18:33:37.428Z,99842.03
2022-12-09T18:36:18.653Z,99850.91
2022-12-09T18:38:46.018Z,99845.41
2022-12-09T18:41:13.882Z,99849.31
2022-12-09T18:43:43.590Z,99846.97
2022-12-09T18:46:13.470Z,99849.00
2022-12-09T18:48:40.569Z,99849.47
2022-12-09T18:51:14.403Z,99844.19
2022-12-09T18:53:40.966Z,99852.22
2022-12-09T18:56:07.919Z,99851.88
2022-12-09T18:58:57.880Z,99852.75
2022-12-09T19:01:23.949Z,99847.28
2022-12-09T19:03:54.007Z,99849.31
2022-12-09T19:06:23.729Z,99856.13
2022-12-09T19:08:53.680Z,99852.41
2022-12-09T19:11:26.569Z,99845.56
2022-12-09T19:13:54.144Z,99862.94
2022-12-09T19:16:21.306Z,99864.97
2022-12-09T19:18:48.494Z,99866.53
2022-12-09T19:21:19.146Z,99867.41
2022-12-09T19:23:46.954Z,99877.59
2022-12-09T19:26:22.561Z,99876.41
2022-12-09T19:29:00.872Z,99878.94
2022-12-09T19:31:36.526Z,99886.09
2022-12-09T19:34:10.506Z,99888.31
2022-12-09T19:36:37.108Z,99892.06
2022-12-09T19:39:06.462Z,99885.59
2022-12-09T19:41:32.993Z,99882.69
2022-12-09T19:44:00.984Z,99877.91
2022-12-09T19:46:28.240Z,99879.63
2022-12-09T19:48:55.695Z,99881.69
2022-12-09T19:51:24.116Z,99880.31
2022-12-09T19:53:56.770Z,99878.44
2022-12-09T19:56:24.237Z,99873.69
2022-12-09T19:58:52.388Z,99879.97
2022-12-09T20:01:20.695Z,99874.38
2022-12-09T20:03:49.589Z,99874.22
2022-12-09T20:06:18.805Z,99875.72
2022-12-09T20:08:46.349Z,99870.44
2022-12-09T20:11:15.725Z,99869.59
2022-12-09T20:13:43.097Z,99878.78
2022-12-09T20:16:12.486Z,99874.88
2022-12-09T20:18:39.491Z,99875.22
2022-12-09T20:21:09.050Z,99880.31
2022-12-09T20:23:37.420Z,99877.78
2022-12-09T20:26:09.417Z,99886.09
2022-12-09T20:28:37.592Z,99888.47
2022-12-09T20:31:06.660Z,99883.88
2022-12-09T20:33:33.906Z,99887.13
2022-12-09T20:36:08.110Z,99890.03
2022-12-09T20:38:35.785Z,99892.38
2022-12-09T20:41:08.867Z,99893.59
2022-12-09T20:43:39.494Z,99896.13
2022-12-09T20:46:10.293Z,99893.78
2022-12-09T20:48:38.286Z,99899.38
2022-12-09T20:51:10.236Z,99893.91
2022-12-09T20:53:37.041Z,99901.25
2022-12-09T20:56:04.197Z,99901.44
2022-12-09T20:58:30.827Z,99901.75
2022-12-09T21:01:05.214Z,99898.69
2022-12-09T21:03:31.802Z,99898.84
2022-12-09T21:05:58.479Z,99901.06
2022-12-09T21:08:31.099Z,99900.06
2022-12-09T21:11:07.066Z,99906.53
2022-12-09T21:13:41.967Z,99910.41
2022-12-09T21:16:12.298Z,99900.56
2022-12-09T21:18:39.126Z,99898.69
2022-12-09T21:21:06.118Z,99896.13
2022-12-09T21:23:35.253Z,99898.00
2022-12-09T21:26:06.814Z,99896.66
2022-12-09T21:28:34.548Z,99900.03
2022-12-09T21:31:09.519Z,99905.81
2022-12-09T21:33:38.379Z,99905.31
2022-12-09T21:36:06.516Z,99897.47
2022-12-09T21:38:35.212Z,99908.38
2022-12-09T21:41:03.845Z,99904.81
2022-12-09T21:43:32.208Z,99910.25
2022-12-09T21:46:02.337Z,99906.16
2022-12-09T21:48:29.056Z,99901.06
2022-12-09T21:50:56.505Z,99907.88
2022-12-09T21:53:23.074Z,99912.28
2022-12-09T21:55:49.970Z,99908.91
2022-12-09T21:58:16.566Z,99907.00
2022-12-09T22:00:43.271Z,99910.22
2022-12-09T22:03:09.855Z,99912.09
2022-12-09T22:05:36.326Z,99913.97
2022-12-09T22:08:03.820Z,99911.94
2022-12-09T22:10:30.502Z,99909.22
2022-12-09T22:12:57.085Z,99912.63
2022-12-09T22:15:23.650Z,99920.13
2022-12-09T22:17:50.303Z,99916.19
2022-12-09T22:23:03.529Z,99911.44
2022-12-09T22:25:30.213Z,99913.66
2022-12-09T22:27:57.205Z,99917.91
2022-12-09T22:30:23.804Z,99916.00
2022-12-09T22:32:51.034Z,99916.38
2022-12-09T22:35:17.735Z,99912.63
2022-12-09T22:37:44.904Z,99904.28
2022-12-09T22:40:11.868Z,99905.31
2022-12-09T22:42:38.475Z,99904.47
2022-12-09T22:45:06.338Z,99914.97
2022-12-09T22:47:32.926Z,99912.72
2022-12-09T22:49:59.671Z,99913.47
2022-12-09T22:52:26.238Z,99916.53
2022-12-09T22:54:52.714Z,99913.16
2022-12-09T22:57:19.330Z,99916.03
2022-12-09T22:59:45.834Z,99920.97
2022-12-09T23:02:12.408Z,99937.94
2022-12-09T23:04:38.969Z,99914.28
2022-12-09T23:07:05.515Z,99925.19
2022-12-09T23:09:32.168Z,99920.59
2022-12-09T23:11:58.724Z,99917.34
2022-12-09T23:14:25.327Z,99916.66
2022-12-09T23:16:51.912Z,99917.34
2022-12-09T23:19:18.497Z,99923.47
2022-12-09T23:21:45.116Z,99914.47
2022-12-09T23:24:16.439Z,99917.19
2022-12-09T23:26:45.114Z,99910.75
2022-12-09T23:29:15.837Z,99927.41
2022-12-09T23:31:43.011Z,99914.88
2022-12-09T23:34:12.958Z,99916.47
2022-12-09T23:36:41.905Z,99917.66
2022-12-09T23:39:14.589Z,99924.53
2022-12-09T23:41:42.788Z,99917.69
2022-12-09T23:44:11.315Z,99926.88
2022-12-09T23:46:38.271Z,99933.34
2022-12-09T23:49:06.425Z,99934.00
2022-12-09T23:51:34.536Z,99930.25
2022-12-09T23:54:03.885Z,99930.13
2022-12-09T23:56:34.351Z,99934.81
2022-12-09T23:59:03.848Z,99934.84
